createdAt,value
2023-04-07T00:01:26.513Z,50.78
2023-04-07T00:09:50.579Z,50.80
2023-04-07T00:14:05.829Z,50.78
2023-04-07T00:22:16.013Z,50.81
2023-04-07T00:26:02.226Z,50.71
2023-04-07T00:29:37.037Z,50.77
2023-04-07T00:33:16.272Z,50.84
2023-04-07T00:36:52.370Z,50.78
2023-04-07T00:44:35.939Z,50.80
2023-04-07T00:48:16.319Z,50.92
2023-04-07T00:52:42.468Z,50.86
2023-04-07T00:56:07.009Z,50.81
2023-04-07T00:59:42.981Z,50.97
2023-04-07T01:03:48.879Z,50.94
2023-04-07T01:07:41.489Z,50.82
2023-04-07T01:11:45.330Z,50.94
2023-04-07T01:15:28.331Z,50.92
2023-04-07T01:23:05.536Z,50.99
2023-04-07T01:30:38.019Z,51.09
2023-04-07T01:35:21.013Z,51.04
2023-04-07T01:38:48.952Z,51.00
2023-04-07T01:42:12.740Z,51.01
2023-04-07T01:45:46.493Z,51.04
2023-04-07T01:49:11.859Z,51.04
2023-04-07T01:52:55.184Z,51.16
2023-04-07T01:56:34.370Z,51.00
2023-04-07T02:00:51.983Z,51.00
2023-04-07T02:04:33.839Z,51.25
2023-04-07T02:08:07.119Z,51.12
2023-04-07T02:11:32.922Z,51.23
2023-04-07T02:15:21.656Z,51.37
2023-04-07T02:18:47.721Z,51.39
2023-04-07T02:22:09.334Z,51.39
2023-04-07T02:29:14.990Z,51.36
2023-04-07T02:36:35.957Z,51.40
2023-04-07T02:39:57.528Z,51.35
2023-04-07T02:44:10.387Z,51.37
2023-04-07T02:52:21.054Z,51.34
2023-04-07T02:56:02.158Z,51.48
2023-04-07T03:03:47.850Z,51.41
2023-04-07T03:07:33.632Z,51.40
2023-04-07T03:11:08.193Z,51.55
2023-04-07T03:14:38.763Z,51.64
2023-04-07T03:18:08.146Z,51.65
2023-04-07T03:21:31.822Z,51.60
2023-04-07T03:24:53.471Z,51.65
2023-04-07T03:28:48.689Z,51.64
2023-04-07T03:32:11.221Z,51.62
2023-04-07T03:35:46.405Z,51.66
2023-04-07T03:39:08.142Z,51.67
2023-04-07T03:42:39.457Z,51.79
2023-04-07T03:46:32.468Z,51.72
2023-04-07T03:58:41.074Z,51.83
2023-04-07T04:02:21.429Z,51.86
2023-04-07T04:05:45.770Z,51.86
2023-04-07T04:09:13.411Z,51.78
2023-04-07T04:12:49.187Z,51.86
2023-04-07T04:16:33.180Z,51.85
2023-04-07T04:20:59.049Z,51.96
2023-04-07T04:24:38.380Z,51.88
2023-04-07T04:28:14.575Z,51.92
2023-04-07T04:31:59.705Z,52.01
2023-04-07T04:35:22.622Z,52.03
2023-04-07T04:38:56.523Z,52.16
2023-04-07T04:42:28.168Z,52.36
2023-04-07T04:46:02.507Z,52.16
2023-04-07T04:49:28.960Z,52.20
2023-04-07T04:52:56.893Z,52.34
2023-04-07T04:56:28.412Z,52.38
2023-04-07T05:00:41.880Z,52.43
2023-04-07T05:04:03.969Z,52.42
2023-04-07T05:07:26.035Z,52.43
2023-04-07T05:10:47.858Z,52.38
2023-04-07T05:14:17.134Z,52.49
2023-04-07T05:17:44.301Z,52.45
2023-04-07T05:21:06.500Z,52.49
2023-04-07T05:24:29.978Z,52.59
2023-04-07T05:28:08.534Z,52.50
2023-04-07T05:31:43.743Z,52.61
2023-04-07T05:35:07.463Z,52.68
2023-04-07T05:38:33.694Z,52.70
2023-04-07T05:42:26.853Z,52.53
2023-04-07T05:45:58.653Z,52.61
2023-04-07T05:49:25.470Z,52.56
2023-04-07T05:52:58.804Z,52.58
2023-04-07T06:00:19.007Z,52.59
2023-04-07T06:03:47.814Z,52.70
2023-04-07T06:07:13.802Z,52.59
2023-04-07T06:10:38.202Z,52.54
2023-04-07T06:14:00.533Z,52.63
2023-04-07T06:17:30.035Z,52.59
2023-04-07T06:20:54.518Z,52.54
2023-04-07T06:24:16.455Z,52.48
2023-04-07T06:27:45.167Z,52.62
2023-04-07T06:31:21.398Z,52.60
2023-04-07T06:34:45.942Z,52.59
2023-04-07T06:38:29.213Z,52.53
2023-04-07T06:42:02.475Z,52.57
2023-04-07T06:49:27.282Z,52.45
2023-04-07T06:52:48.917Z,52.31
2023-04-07T06:56:21.708Z,52.24
2023-04-07T06:59:45.673Z,52.12
2023-04-07T07:07:09.578Z,52.07
2023-04-07T07:14:07.706Z,51.81
2023-04-07T07:17:30.225Z,51.93
2023-04-07T07:20:53.068Z,51.76
2023-04-07T07:24:25.473Z,51.78
2023-04-07T07:27:49.319Z,51.66
2023-04-07T07:31:18.921Z,51.65
2023-04-07T07:34:40.949Z,51.65
2023-04-07T07:38:14.831Z,51.65
2023-04-07T07:41:38.465Z,51.68
2023-04-07T07:45:07.858Z,51.55
2023-04-07T07:48:34.738Z,51.65
2023-04-07T07:51:56.347Z,51.55
2023-04-07T07:55:17.942Z,51.55
2023-04-07T08:06:22.650Z,51.51
2023-04-07T08:10:04.370Z,51.36
2023-04-07T08:13:26.773Z,51.34
2023-04-07T08:21:13.494Z,52.71
2023-04-07T08:24:43.157Z,52.55
2023-04-07T08:28:06.339Z,52.28
2023-04-07T08:31:27.937Z,52.25
2023-04-07T08:34:49.663Z,52.02
2023-04-07T08:38:13.806Z,51.70
2023-04-07T08:41:42.938Z,51.59
2023-04-07T08:45:06.369Z,51.32
2023-04-07T08:57:12.191Z,50.88
2023-04-07T09:04:19.479Z,50.78
2023-04-07T09:07:44.425Z,50.57
2023-04-07T09:11:15.588Z,50.59
2023-04-07T09:15:05.568Z,50.41
2023-04-07T09:18:30.444Z,50.45
2023-04-07T09:21:53.048Z,50.36
2023-04-07T09:25:26.408Z,50.32
2023-04-07T09:29:07.597Z,50.21
2023-04-07T09:32:44.029Z,50.19
2023-04-07T09:36:13.336Z,50.34
2023-04-07T09:39:49.183Z,50.23
2023-04-07T09:43:17.890Z,50.18
2023-04-07T09:46:54.337Z,50.27
2023-04-07T09:50:16.022Z,50.26
2023-04-07T09:53:56.901Z,50.32
2023-04-07T09:57:24.694Z,50.33
2023-04-07T10:00:49.788Z,50.26
2023-04-07T10:04:17.649Z,50.41
2023-04-07T10:07:47.532Z,50.24
2023-04-07T10:11:16.593Z,50.36
2023-04-07T10:14:50.748Z,50.22
2023-04-07T10:18:14.440Z,50.25
2023-04-07T10:21:49.238Z,50.15
2023-04-07T10:25:23.896Z,50.18
2023-04-07T10:28:51.403Z,50.11
2023-04-07T10:36:14.027Z,51.35
2023-04-07T10:43:43.941Z,53.98
2023-04-07T10:47:07.134Z,54.73
2023-04-07T10:50:29.708Z,55.08
2023-04-07T10:54:22.938Z,55.16
2023-04-07T11:01:42.622Z,55.20
2023-04-07T11:05:17.731Z,55.19
2023-04-07T11:08:50.033Z,55.29
2023-04-07T11:12:27.709Z,55.33
2023-04-07T11:23:28.639Z,54.33
2023-04-07T11:26:50.742Z,53.74
2023-04-07T11:30:13.472Z,53.34
2023-04-07T11:33:44.537Z,52.84
2023-04-07T11:37:25.191Z,52.45
2023-04-07T11:40:49.188Z,52.36
2023-04-07T11:44:21.266Z,52.40
2023-04-07T11:47:47.310Z,52.26
2023-04-07T11:51:42.876Z,52.57
2023-04-07T11:55:04.820Z,53.00
2023-04-07T11:58:32.913Z,53.12
2023-04-07T12:02:16.299Z,53.56
2023-04-07T12:05:48.161Z,53.54
2023-04-07T12:09:27.312Z,53.33
2023-04-07T12:13:02.424Z,53.81
2023-04-07T12:16:53.801Z,54.52
2023-04-07T12:25:00.189Z,55.46
2023-04-07T12:41:43.534Z,56.56
2023-04-07T12:54:59.442Z,57.51
2023-04-07T13:02:31.890Z,59.11
2023-04-07T13:10:10.646Z,58.53
2023-04-07T13:13:53.210Z,58.06
2023-04-07T13:17:18.635Z,57.85
2023-04-07T13:21:22.136Z,57.70
2023-04-07T13:24:40.923Z,57.52
2023-04-07T13:28:07.925Z,57.37
2023-04-07T13:31:36.634Z,57.19
2023-04-07T13:35:02.427Z,57.05
2023-04-07T13:38:32.364Z,56.91
2023-04-07T13:42:17.597Z,56.65
2023-04-07T13:45:42.238Z,56.49
2023-04-07T13:49:12.929Z,56.43
2023-04-07T13:52:41.987Z,56.29
2023-04-07T13:56:17.787Z,55.93
2023-04-07T13:59:39.342Z,56.04
2023-04-07T14:07:14.069Z,56.10
2023-04-07T14:10:38.255Z,56.15
2023-04-07T14:14:21.743Z,56.24
2023-04-07T14:17:43.389Z,55.69
2023-04-07T14:21:07.271Z,54.95
2023-04-07T14:24:28.894Z,54.58
2023-04-07T14:28:14.828Z,54.02
2023-04-07T14:31:39.076Z,53.27
2023-04-07T14:35:05.040Z,53.03
2023-04-07T14:38:34.064Z,52.50
2023-04-07T14:42:04.408Z,52.10
2023-04-07T14:45:26.049Z,52.11
2023-04-07T14:48:47.640Z,51.60
2023-04-07T14:52:14.958Z,51.44
2023-04-07T14:55:37.080Z,51.71
2023-04-07T14:58:58.670Z,51.64
2023-04-07T15:02:33.359Z,51.45
2023-04-07T15:05:59.979Z,51.28
2023-04-07T15:09:28.273Z,50.82
2023-04-07T15:12:50.409Z,50.65
2023-04-07T15:16:18.306Z,50.59
2023-04-07T15:20:13.565Z,50.87
2023-04-07T15:24:02.089Z,51.02
2023-04-07T15:27:23.659Z,51.08
2023-04-07T15:30:47.984Z,51.05
2023-04-07T15:34:24.048Z,51.10
2023-04-07T15:38:03.765Z,51.13
2023-04-07T15:41:26.023Z,51.15
2023-04-07T15:44:47.618Z,50.97
2023-04-07T15:48:19.702Z,50.94
2023-04-07T15:51:57.848Z,50.88
2023-04-07T15:55:35.957Z,50.47
2023-04-07T15:58:57.619Z,50.00
2023-04-07T16:02:20.894Z,49.79
2023-04-07T16:05:54.308Z,49.85
2023-04-07T16:09:25.015Z,50.12
2023-04-07T16:12:49.744Z,50.36
2023-04-07T16:16:22.210Z,50.18
2023-04-07T16:19:45.744Z,50.03
2023-04-07T16:23:12.729Z,49.89
2023-04-07T16:27:36.113Z,49.83
2023-04-07T16:31:25.970Z,49.77
2023-04-07T16:34:57.854Z,49.95
2023-04-07T16:42:41.185Z,50.54
2023-04-07T16:46:43.066Z,50.85
2023-04-07T16:54:35.142Z,51.04
2023-04-07T16:57:58.252Z,50.76
2023-04-07T17:09:26.432Z,50.62
2023-04-07T17:21:05.557Z,50.50
2023-04-07T17:24:30.245Z,50.91
2023-04-07T17:27:54.981Z,51.13
